Time;durP1;ratioP1;P1;durP2;ratioP2;P2;SDS_P1;SDS_P2;PMS_P1;PMS_P2;Temp;Humidity;BMP_temperature;BMP_pressure;BME280_temperature;BME280_humidity;BME280_pressure;Samples;Min_cycle;Max_cycle;Signal;HPM_P1;HPM_P2
2022/09/28 00:01:25;;;;;;;2.37;1.90;;;18.70;99.90;;;;;;5018622;28;20706;-66
2022/09/28 00:03:57;;;;;;;6.03;2.00;;;18.70;99.90;;;;;;5007548;28;20643;-65
2022/09/28 00:06:27;;;;;;;3.30;1.80;;;18.70;99.90;;;;;;4999035;28;20559;-66
2022/09/28 00:08:54;;;;;;;3.33;1.93;;;18.70;99.90;;;;;;5013372;28;20196;-66
2022/09/28 00:11:26;;;;;;;5.70;2.03;;;18.70;99.90;;;;;;4978674;28;20199;-66
2022/09/28 00:14:00;;;;;;;2.07;1.80;;;18.70;99.90;;;;;;5009706;28;20204;-66
2022/09/28 00:16:31;;;;;;;3.80;2.10;;;18.70;99.90;;;;;;4994443;28;20199;-65
2022/09/28 00:18:58;;;;;;;4.73;2.20;;;18.70;99.90;;;;;;5009904;28;20216;-67
2022/09/28 00:21:29;;;;;;;2.43;2.00;;;18.60;99.90;;;;;;5013146;28;20199;-68
2022/09/28 00:24:12;;;;;;;7.70;2.30;;;18.60;99.90;;;;;;5000556;28;20177;-66
2022/09/28 00:26:55;;;;;;;2.07;1.87;;;18.60;99.90;;;;;;5010000;28;20621;-67
2022/09/28 00:29:33;;;;;;;3.10;2.00;;;18.60;99.90;;;;;;5025283;28;20230;-68
2022/09/28 00:32:12;;;;;;;3.73;2.33;;;18.60;99.90;;;;;;5006223;28;20564;-67
2022/09/28 00:34:45;;;;;;;4.73;2.00;;;18.60;99.90;;;;;;5009736;28;20257;-67
2022/09/28 00:37:14;;;;;;;3.93;2.00;;;18.50;99.90;;;;;;5008601;28;20196;-65
2022/09/28 00:39:40;;;;;;;3.03;2.00;;;18.50;99.90;;;;;;4990801;28;20353;-67
2022/09/28 00:42:14;;;;;;;2.30;1.90;;;18.50;99.90;;;;;;5000140;28;20200;-65
2022/09/28 00:44:48;;;;;;;4.40;1.93;;;18.50;99.90;;;;;;5006991;28;20254;-66
2022/09/28 00:47:20;;;;;;;5.10;1.87;;;18.40;99.90;;;;;;4995208;28;20203;-66
2022/09/28 00:50:12;;;;;;;1.90;1.53;;;18.40;99.90;;;;;;5001989;28;20180;-65
2022/09/28 00:53:05;;;;;;;2.47;1.80;;;18.40;99.90;;;;;;5008970;28;20684;-66
2022/09/28 00:55:59;;;;;;;5.27;2.13;;;18.40;99.90;;;;;;4999256;28;20186;-65
2022/09/28 00:58:40;;;;;;;2.47;1.57;;;18.40;99.90;;;;;;5014959;28;20204;-65
2022/09/28 01:01:07;;;;;;;4.20;2.10;;;18.40;99.90;;;;;;5013768;28;20526;-65
2022/09/28 01:03:34;;;;;;;3.00;2.00;;;18.40;99.90;;;;;;5012027;28;20192;-66
2022/09/28 01:06:06;;;;;;;4.43;1.90;;;18.40;99.90;;;;;;5017092;28;20235;-65
2022/09/28 01:08:35;;;;;;;3.50;2.13;;;18.40;99.90;;;;;;4996033;28;20184;-66
2022/09/28 01:11:01;;;;;;;7.00;2.57;;;18.50;99.90;;;;;;4980420;28;20188;-65
2022/09/28 01:13:31;;;;;;;7.83;2.07;;;18.50;99.90;;;;;;5019118;28;20892;-66
2022/09/28 01:16:18;;;;;;;4.93;1.93;;;18.50;99.90;;;;;;5015593;28;20180;-66
2022/09/28 01:19:09;;;;;;;3.07;2.07;;;18.50;99.90;;;;;;5005760;28;20177;-65
2022/09/28 01:22:13;;;;;;;4.37;2.00;;;18.40;99.90;;;;;;5015140;28;20184;-66
2022/09/28 01:25:03;;;;;;;4.20;1.73;;;18.40;99.90;;;;;;4979347;28;20752;-65
2022/09/28 01:27:37;;;;;;;5.00;2.23;;;18.50;99.90;;;;;;5012255;28;20197;-66
2022/09/28 01:30:09;;;;;;;3.97;2.00;;;18.50;99.90;;;;;;5013192;28;20185;-66
2022/09/28 01:32:50;;;;;;;4.13;2.20;;;18.50;99.90;;;;;;5014767;28;20673;-65
2022/09/28 01:35:32;;;;;;;3.57;2.00;;;18.50;99.90;;;;;;5018650;28;20180;-65
2022/09/28 01:38:16;;;;;;;4.60;2.13;;;18.60;99.90;;;;;;4997845;28;20184;-65
2022/09/28 01:40:43;;;;;;;3.80;2.10;;;18.60;99.90;;;;;;4997771;28;20273;-65
2022/09/28 01:43:21;;;;;;;4.30;2.10;;;18.60;99.90;;;;;;5010722;28;20196;-65
2022/09/28 01:46:03;;;;;;;5.27;2.70;;;18.60;99.90;;;;;;5012780;28;20217;-65
2022/09/28 01:48:41;;;;;;;3.10;2.00;;;18.60;99.90;;;;;;5012661;28;20657;-65
2022/09/28 01:51:24;;;;;;;3.70;2.10;;;18.70;99.90;;;;;;5013215;28;20510;-65
2022/09/28 01:54:01;;;;;;;4.93;2.10;;;18.70;99.90;;;;;;5017489;28;20271;-65
2022/09/28 01:56:38;;;;;;;3.50;2.20;;;18.70;99.90;;;;;;5011519;28;20672;-66
2022/09/28 01:59:29;;;;;;;4.03;2.37;;;18.70;99.90;;;;;;5012568;28;20275;-65
2022/09/28 02:02:09;;;;;;;5.47;1.93;;;18.70;99.90;;;;;;5011541;28;20216;-66
2022/09/28 02:05:01;;;;;;;8.37;2.30;;;18.70;99.90;;;;;;5017917;28;20192;-66
2022/09/28 02:08:14;;;;;;;3.60;1.87;;;18.70;99.90;;;;;;5012534;28;20211;-65
2022/09/28 02:10:57;;;;;;;6.40;2.03;;;18.70;99.90;;;;;;5005143;28;20189;-66
2022/09/28 02:13:34;;;;;;;6.93;2.40;;;18.70;99.90;;;;;;5005105;28;20185;-65
2022/09/28 02:16:09;;;;;;;3.30;2.10;;;18.70;99.90;;;;;;5012035;28;20686;-66
2022/09/28 02:18:36;;;;;;;7.07;2.60;;;18.60;99.90;;;;;;5011938;28;20176;-66
2022/09/28 02:21:28;;;;;;;4.23;2.13;;;18.60;99.90;;;;;;5015939;28;20267;-66
2022/09/28 02:24:20;;;;;;;5.80;1.90;;;18.60;99.90;;;;;;4996701;28;20793;-65
2022/09/28 02:26:50;;;;;;;7.93;2.20;;;18.50;99.90;;;;;;5010874;28;20307;-66
2022/09/28 02:29:18;;;;;;;6.50;2.50;;;18.50;99.90;;;;;;5012036;28;20224;-66
2022/09/28 02:31:45;;;;;;;7.00;2.00;;;18.50;99.90;;;;;;5004790;28;20193;-65
2022/09/28 02:34:11;;;;;;;9.63;2.30;;;18.60;99.90;;;;;;5020888;28;20279;-66
2022/09/28 02:36:38;;;;;;;4.00;1.97;;;18.60;99.90;;;;;;5012200;28;20275;-65
2022/09/28 02:39:05;;;;;;;7.37;2.57;;;18.60;99.90;;;;;;5012046;28;20220;-65
2022/09/28 02:42:19;;;;;;;5.23;2.00;;;18.60;99.90;;;;;;5013996;28;20235;-65
2022/09/28 02:45:20;;;;;;;7.80;2.43;;;18.60;99.90;;;;;;4992164;28;20189;-66
2022/09/28 02:48:24;;;;;;;5.27;2.30;;;18.50;99.90;;;;;;4990995;28;20193;-67
2022/09/28 02:51:08;;;;;;;6.43;2.50;;;18.50;99.90;;;;;;5013236;28;20202;-65
2022/09/28 02:54:11;;;;;;;5.80;2.47;;;18.50;99.90;;;;;;5012139;28;20180;-67
2022/09/28 02:57:07;;;;;;;5.07;2.30;;;18.50;99.90;;;;;;5010236;28;20176;-68
2022/09/28 02:59:52;;;;;;;5.27;2.20;;;18.50;99.90;;;;;;5011754;28;20235;-68
2022/09/28 03:02:33;;;;;;;6.23;2.33;;;18.40;99.90;;;;;;5013648;28;20220;-67
2022/09/28 03:05:33;;;;;;;6.90;2.83;;;18.50;99.90;;;;;;5011562;28;20180;-67
2022/09/28 03:08:06;;;;;;;9.47;2.40;;;18.40;99.90;;;;;;5010097;28;20196;-67
2022/09/28 03:10:56;;;;;;;7.97;2.30;;;18.40;99.90;;;;;;5009101;28;20193;-67
2022/09/28 03:13:24;;;;;;;4.23;2.50;;;18.50;99.90;;;;;;5013635;28;20196;-67
2022/09/28 03:15:51;;;;;;;8.77;2.50;;;18.50;99.90;;;;;;5011589;28;20677;-67
2022/09/28 03:18:17;;;;;;;9.33;2.20;;;18.50;99.90;;;;;;5011281;28;20181;-67
2022/09/28 03:20:44;;;;;;;9.97;2.20;;;18.50;99.90;;;;;;5020202;28;20635;-67
2022/09/28 03:23:10;;;;;;;8.07;2.80;;;18.50;99.90;;;;;;5005537;28;20196;-67
2022/09/28 03:25:36;;;;;;;8.13;2.30;;;18.50;99.90;;;;;;4993064;28;20216;-67
2022/09/28 03:28:03;;;;;;;5.30;2.13;;;18.40;99.90;;;;;;4993316;28;20212;-67
2022/09/28 03:30:29;;;;;;;5.73;2.13;;;18.40;99.90;;;;;;5008853;28;20200;-68
2022/09/28 03:33:01;;;;;;;10.03;2.60;;;18.40;99.90;;;;;;5009648;28;20594;-67
2022/09/28 03:35:27;;;;;;;10.77;2.60;;;18.30;99.90;;;;;;5010938;28;20185;-68
2022/09/28 03:37:55;;;;;;;11.37;2.80;;;18.30;99.90;;;;;;5010812;28;20181;-67
2022/09/28 03:40:23;;;;;;;12.43;2.70;;;18.30;99.90;;;;;;5013024;28;20180;-68
2022/09/28 03:42:49;;;;;;;15.10;3.17;;;18.40;99.90;;;;;;5017641;28;20227;-67
2022/09/28 03:45:15;;;;;;;13.43;2.80;;;18.40;99.90;;;;;;4992670;28;20259;-68
2022/09/28 03:47:46;;;;;;;19.73;3.33;;;18.40;99.90;;;;;;4999934;28;20208;-68
2022/09/28 03:50:13;;;;;;;11.47;2.87;;;18.30;99.90;;;;;;5009523;28;20247;-67
2022/09/28 03:52:40;;;;;;;19.77;3.50;;;18.20;99.90;;;;;;4976532;28;20195;-67
2022/09/28 03:55:06;;;;;;;21.93;3.47;;;18.20;99.90;;;;;;4992958;28;20181;-67
2022/09/28 03:57:33;;;;;;;16.47;3.77;;;18.20;99.90;;;;;;5019379;28;20210;-68
2022/09/28 03:59:59;;;;;;;17.07;2.73;;;18.20;99.90;;;;;;5003182;28;20192;-68
2022/09/28 04:02:26;;;;;;;14.20;3.33;;;18.20;99.90;;;;;;5016291;28;20223;-67
2022/09/28 04:04:55;;;;;;;14.20;2.93;;;18.20;99.90;;;;;;5000658;28;20189;-68
2022/09/28 04:07:22;;;;;;;22.23;3.80;;;18.20;99.90;;;;;;5009848;28;20208;-68
2022/09/28 04:09:48;;;;;;;19.70;3.37;;;18.20;99.90;;;;;;5003197;28;20226;-67
2022/09/28 04:12:15;;;;;;;14.53;3.00;;;18.20;99.90;;;;;;5005540;28;20857;-67
2022/09/28 04:14:41;;;;;;;18.67;3.47;;;18.20;99.90;;;;;;4992324;28;20240;-67
2022/09/28 04:17:07;;;;;;;13.90;2.33;;;18.20;99.90;;;;;;5010544;28;20287;-67
2022/09/28 04:19:33;;;;;;;20.23;3.37;;;18.20;99.90;;;;;;5010788;28;20512;-67
2022/09/28 04:22:01;;;;;;;19.13;3.23;;;18.30;99.90;;;;;;5013677;28;20215;-67
2022/09/28 04:24:28;;;;;;;16.10;2.90;;;18.20;99.90;;;;;;5009780;28;20193;-68
2022/09/28 04:29:14;;;;;;;23.23;3.43;;;18.20;99.90;;;;;;5025086;28;20220;-67
2022/09/28 04:29:42;;;;;;;21.33;3.10;;;18.30;99.90;;;;;;5008557;28;20227;-67
2022/09/28 04:32:10;;;;;;;16.13;3.10;;;18.30;99.90;;;;;;5006669;28;20694;-68
2022/09/28 04:34:37;;;;;;;13.63;2.93;;;18.40;99.90;;;;;;5016938;28;20184;-68
2022/09/28 04:37:04;;;;;;;8.83;2.43;;;18.40;99.90;;;;;;4975829;28;20184;-67
2022/09/28 04:39:30;;;;;;;14.13;2.70;;;18.50;99.90;;;;;;4987438;28;20220;-67
2022/09/28 04:41:56;;;;;;;10.40;2.63;;;18.50;99.90;;;;;;5002195;28;20185;-67
2022/09/28 04:44:23;;;;;;;13.80;3.03;;;18.50;99.90;;;;;;5006207;28;20193;-67
2022/09/28 04:46:49;;;;;;;11.40;3.10;;;18.60;99.90;;;;;;5013773;28;20238;-68
2022/09/28 04:49:16;;;;;;;10.63;2.70;;;18.60;99.90;;;;;;5007098;28;20177;-68
2022/09/28 04:51:43;;;;;;;8.10;2.40;;;18.70;99.90;;;;;;4992358;28;20267;-67
2022/09/28 04:54:09;;;;;;;11.33;2.70;;;18.70;99.90;;;;;;5008225;28;20195;-67
2022/09/28 04:56:35;;;;;;;13.03;2.77;;;18.70;99.90;;;;;;5008397;28;20280;-66
2022/09/28 04:59:02;;;;;;;7.40;2.30;;;18.80;99.90;;;;;;5002280;28;20227;-67
2022/09/28 05:01:28;;;;;;;8.30;2.57;;;18.80;99.90;;;;;;5015388;28;20192;-68
2022/09/28 05:03:55;;;;;;;6.73;2.67;;;18.80;99.90;;;;;;5013110;28;20197;-68
2022/09/28 05:06:21;;;;;;;10.30;2.50;;;18.90;99.90;;;;;;4984954;28;20238;-66
2022/09/28 05:08:48;;;;;;;7.20;2.60;;;19.00;99.90;;;;;;4988969;28;20193;-67
2022/09/28 05:11:20;;;;;;;7.27;2.73;;;19.10;99.90;;;;;;5005488;28;20184;-65
2022/09/28 05:13:47;;;;;;;7.50;2.60;;;19.20;99.90;;;;;;5010306;28;20201;-68
2022/09/28 05:16:16;;;;;;;4.57;2.30;;;19.30;99.90;;;;;;4988314;28;20560;-65
2022/09/28 05:18:43;;;;;;;6.87;2.50;;;19.30;99.90;;;;;;5005310;28;20185;-65
2022/09/28 05:21:18;;;;;;;12.30;2.77;;;19.50;99.90;;;;;;5005331;28;20192;-68
2022/09/28 05:23:47;;;;;;;8.07;2.80;;;19.50;99.90;;;;;;5006835;28;20573;-65
2022/09/28 05:26:17;;;;;;;7.73;2.97;;;19.60;99.90;;;;;;5004891;28;20228;-65
2022/09/28 05:28:43;;;;;;;6.27;2.43;;;19.70;99.90;;;;;;5006507;28;20554;-65
2022/09/28 05:31:10;;;;;;;10.70;2.80;;;19.80;99.90;;;;;;5010823;28;20197;-65
2022/09/28 05:33:37;;;;;;;7.83;2.63;;;19.90;99.90;;;;;;5020414;28;20189;-65
2022/09/28 05:36:03;;;;;;;12.33;2.53;;;19.90;99.90;;;;;;4992476;28;20184;-65
2022/09/28 05:38:30;;;;;;;6.83;2.60;;;20.00;99.90;;;;;;5008649;28;20280;-65
2022/09/28 05:40:58;;;;;;;9.20;2.63;;;20.00;99.90;;;;;;5022816;28;20272;-65
2022/09/28 05:43:28;;;;;;;9.07;2.60;;;20.10;99.90;;;;;;5014166;28;20674;-65
2022/09/28 05:45:54;;;;;;;7.80;2.57;;;20.10;99.90;;;;;;5012868;28;20267;-65
2022/09/28 05:48:21;;;;;;;4.07;2.30;;;20.20;99.90;;;;;;5002512;28;20189;-65
2022/09/28 05:51:01;;;;;;;10.07;2.70;;;20.20;99.90;;;;;;5011373;28;20177;-65
2022/09/28 05:53:30;;;;;;;14.43;3.20;;;20.30;99.90;;;;;;5009302;28;20188;-65
2022/09/28 05:55:58;;;;;;;10.23;2.97;;;20.30;99.90;;;;;;5011414;28;20177;-65
2022/09/28 05:58:25;;;;;;;16.73;3.13;;;20.30;99.90;;;;;;5013334;28;20191;-66
2022/09/28 06:00:56;;;;;;;8.90;2.83;;;20.40;99.90;;;;;;5005508;28;20247;-65
2022/09/28 06:03:23;;;;;;;6.83;2.33;;;20.50;99.90;;;;;;5002008;28;20220;-65
2022/09/28 06:05:50;;;;;;;10.03;2.80;;;20.60;99.90;;;;;;4987635;28;20283;-65
2022/09/28 06:08:17;;;;;;;9.77;3.10;;;20.70;99.90;;;;;;5009279;28;20208;-65
2022/09/28 06:10:43;;;;;;;17.10;3.03;;;20.80;99.90;;;;;;4994663;28;20189;-65
2022/09/28 06:13:10;;;;;;;13.97;2.97;;;20.90;99.90;;;;;;4989646;28;20199;-65
2022/09/28 06:15:40;;;;;;;8.70;2.47;;;20.90;99.90;;;;;;5001736;28;20213;-65
2022/09/28 06:18:13;;;;;;;8.10;2.60;;;20.90;99.90;;;;;;5021007;28;20190;-65
2022/09/28 06:20:40;;;;;;;10.90;3.10;;;21.00;99.90;;;;;;5004007;28;20220;-65
2022/09/28 06:23:11;;;;;;;11.80;2.43;;;21.00;99.90;;;;;;5010712;28;20189;-65
2022/09/28 06:25:38;;;;;;;8.10;3.07;;;20.90;99.90;;;;;;4994315;28;20236;-65
2022/09/28 06:28:05;;;;;;;9.97;2.73;;;21.00;99.90;;;;;;5010906;28;20270;-65
2022/09/28 06:30:36;;;;;;;11.63;2.67;;;21.00;99.90;;;;;;5007266;28;20220;-65
2022/09/28 06:33:06;;;;;;;7.97;2.60;;;21.00;99.90;;;;;;4981152;28;20586;-65
2022/09/28 06:35:32;;;;;;;9.73;2.40;;;21.00;99.90;;;;;;5012026;28;20538;-65
2022/09/28 06:38:00;;;;;;;14.93;3.00;;;21.00;99.90;;;;;;5011408;28;20181;-65
2022/09/28 06:40:27;;;;;;;8.40;2.50;;;21.10;99.90;;;;;;5015556;28;20200;-65
2022/09/28 06:43:09;;;;;;;12.90;2.30;;;21.10;99.90;;;;;;5013219;28;20184;-65
2022/09/28 06:45:37;;;;;;;11.17;2.70;;;21.20;99.90;;;;;;5010543;28;20714;-65
2022/09/28 06:48:08;;;;;;;12.07;2.80;;;21.20;99.90;;;;;;4993941;28;20173;-65
2022/09/28 06:50:40;;;;;;;7.55;2.40;;;21.30;99.90;;;;;;5011777;28;20279;-65
2022/09/28 06:53:10;;;;;;;10.80;2.47;;;21.30;99.90;;;;;;5013620;28;20223;-65
2022/09/28 06:55:43;;;;;;;9.85;2.65;;;21.30;99.90;;;;;;4991604;28;20670;-65
2022/09/28 06:58:18;;;;;;;12.82;2.65;;;21.40;99.90;;;;;;4993912;28;20185;-65
2022/09/28 07:00:46;;;;;;;12.97;2.77;;;21.40;99.90;;;;;;5012101;28;20187;-65
2022/09/28 07:03:16;;;;;;;17.73;2.70;;;21.50;99.90;;;;;;5019562;28;20196;-65
2022/09/28 07:05:47;;;;;;;16.65;3.15;;;21.50;99.90;;;;;;5004537;28;20213;-65
2022/09/28 07:08:16;;;;;;;14.07;2.83;;;21.50;99.90;;;;;;5010487;28;20586;-65
2022/09/28 07:10:46;;;;;;;10.52;2.45;;;21.60;99.90;;;;;;5009524;28;20180;-65
2022/09/28 07:13:14;;;;;;;6.03;2.05;;;21.60;99.90;;;;;;5006203;28;20174;-65
2022/09/28 07:15:42;;;;;;;9.50;2.47;;;21.70;99.90;;;;;;5009834;28;20184;-65
2022/09/28 07:18:10;;;;;;;11.38;2.70;;;21.80;99.90;;;;;;4978638;28;20186;-65
2022/09/28 07:20:37;;;;;;;10.35;2.47;;;21.80;99.90;;;;;;5000973;28;20327;-65
2022/09/28 07:23:09;;;;;;;11.45;2.50;;;21.90;99.90;;;;;;5017520;28;20204;-65
2022/09/28 07:25:35;;;;;;;17.77;2.40;;;22.10;99.90;;;;;;5007361;28;20346;-65
2022/09/28 07:28:03;;;;;;;10.80;2.40;;;22.20;99.90;;;;;;4992088;28;20283;-65
2022/09/28 07:30:34;;;;;;;19.02;3.08;;;22.30;99.90;;;;;;5006730;28;20558;-65
2022/09/28 07:33:03;;;;;;;15.02;2.40;;;22.30;99.90;;;;;;4974303;28;20323;-65
2022/09/28 07:35:33;;;;;;;15.97;2.63;;;22.40;99.90;;;;;;5001992;28;20255;-66
2022/09/28 07:38:07;;;;;;;17.23;3.10;;;22.40;99.90;;;;;;4993246;28;20276;-65
2022/09/28 07:43:21;;;;;;;16.35;2.97;;;22.60;99.90;;;;;;5012888;28;20192;-65
2022/09/28 07:45:51;;;;;;;13.43;2.70;;;22.80;99.90;;;;;;4998241;28;20271;-66
2022/09/28 07:48:18;;;;;;;13.40;2.33;;;22.90;99.90;;;;;;5017174;28;20272;-66
2022/09/28 07:50:53;;;;;;;17.15;2.78;;;22.90;99.90;;;;;;4988945;28;20655;-65
2022/09/28 07:53:24;;;;;;;12.93;3.25;;;23.10;99.90;;;;;;4990056;28;20587;-66
2022/09/28 07:56:00;;;;;;;18.30;2.83;;;23.10;99.90;;;;;;5005968;28;20186;-65
2022/09/28 07:58:27;;;;;;;20.45;2.58;;;23.10;99.90;;;;;;5008196;28;20666;-68
2022/09/28 08:00:53;;;;;;;18.45;3.15;;;23.20;99.90;;;;;;5016765;28;20263;-69
2022/09/28 08:03:21;;;;;;;16.65;2.65;;;23.20;99.90;;;;;;4981356;28;20193;-66
2022/09/28 08:05:48;;;;;;;9.45;2.53;;;23.30;99.90;;;;;;5008258;28;20194;-68
2022/09/28 08:08:15;;;;;;;14.10;2.90;;;23.30;99.90;;;;;;5001756;28;20619;-68
2022/09/28 08:10:43;;;;;;;12.23;2.72;;;23.30;99.90;;;;;;4972720;28;20185;-68
2022/09/28 08:13:09;;;;;;;15.57;2.97;;;23.50;99.90;;;;;;4972924;28;20189;-68
2022/09/28 08:15:37;;;;;;;18.95;2.95;;;23.70;99.90;;;;;;4972986;28;20173;-66
2022/09/28 08:18:05;;;;;;;18.48;2.47;;;23.80;99.90;;;;;;4994476;28;20256;-68
2022/09/28 08:23:19;;;;;;;13.15;2.83;;;23.90;99.90;;;;;;5026894;28;20658;-67
2022/09/28 08:25:52;;;;;;;16.65;2.65;;;24.00;99.90;;;;;;5006902;28;20629;-66
2022/09/28 08:28:21;;;;;;;12.60;2.92;;;23.90;99.90;;;;;;4991613;28;20708;-69
2022/09/28 08:30:48;;;;;;;14.38;2.58;;;23.90;99.90;;;;;;4988709;28;20192;-68
2022/09/28 08:33:20;;;;;;;21.75;3.58;;;23.90;99.90;;;;;;4988614;28;20189;-68
2022/09/28 08:35:47;;;;;;;16.95;2.90;;;24.10;99.90;;;;;;4989750;28;20573;-69
2022/09/28 08:38:14;;;;;;;14.25;2.97;;;24.10;99.90;;;;;;5004157;28;20772;-69
2022/09/28 08:41:12;;;;;;;20.13;3.72;;;24.10;99.90;;;;;;4992093;28;20181;-69
2022/09/28 08:44:07;;;;;;;21.23;2.80;;;24.10;99.90;;;;;;4988554;28;20775;-68
2022/09/28 08:46:46;;;;;;;19.10;3.80;;;24.30;99.90;;;;;;4995592;28;20732;-68
2022/09/28 08:49:22;;;;;;;22.20;3.00;;;24.20;99.90;;;;;;4999910;28;20180;-68
2022/09/28 08:52:32;;;;;;;18.45;2.80;;;24.30;99.90;;;;;;5009288;28;20180;-68
2022/09/28 08:55:35;;;;;;;17.05;3.38;;;24.30;99.90;;;;;;4977335;28;20232;-67
2022/09/28 08:58:22;;;;;;;18.58;2.63;;;24.30;99.90;;;;;;5012469;28;20666;-67
2022/09/28 09:00:52;;;;;;;17.88;2.60;;;24.40;99.90;;;;;;5009622;28;20185;-68
2022/09/28 09:03:32;;;;;;;20.60;3.15;;;24.30;99.90;;;;;;4983601;28;20395;-67
2022/09/28 09:06:30;;;;;;;13.20;2.45;;;24.50;99.90;;;;;;4994288;28;20208;-68
2022/09/28 09:09:47;;;;;;;20.88;2.58;;;24.70;99.90;;;;;;5009915;28;20188;-67
2022/09/28 09:12:19;;;;;;;13.02;2.58;;;24.80;99.90;;;;;;4968337;28;20279;-67
2022/09/28 09:15:13;;;;;;;13.65;2.92;;;25.00;99.90;;;;;;4992356;28;20201;-67
2022/09/28 09:18:07;;;;;;;11.45;2.40;;;25.10;99.90;;;;;;5001604;28;20189;-67
2022/09/28 09:20:55;;;;;;;11.73;2.40;;;25.30;99.90;;;;;;5002946;28;20254;-68
2022/09/28 09:23:49;;;;;;;13.45;2.97;;;25.40;99.90;;;;;;4992527;28;20181;-67
2022/09/28 09:26:19;;;;;;;13.85;2.30;;;25.70;99.90;;;;;;4975659;28;20233;-67
2022/09/28 09:29:07;;;;;;;15.38;2.85;;;26.00;99.90;;;;;;5012410;28;20189;-68
2022/09/28 09:32:03;;;;;;;20.65;2.88;;;26.00;99.90;;;;;;5009834;28;20199;-67
2022/09/28 09:35:08;;;;;;;17.17;2.47;;;26.10;99.90;;;;;;5004389;28;20193;-68
2022/09/28 09:38:05;;;;;;;13.70;2.55;;;26.50;99.90;;;;;;5018284;28;20200;-67
2022/09/28 09:41:11;;;;;;;20.70;2.50;;;26.40;99.90;;;;;;5005480;28;20185;-65
2022/09/28 09:43:57;;;;;;;22.50;2.22;;;26.80;99.90;;;;;;5001821;28;20558;-65
2022/09/28 09:46:47;;;;;;;12.57;2.25;;;27.00;99.90;;;;;;5020383;28;20213;-66
2022/09/28 09:49:54;;;;;;;14.40;2.60;;;27.00;99.90;;;;;;5007955;28;20181;-66
2022/09/28 09:52:27;;;;;;;7.82;2.25;;;27.00;99.90;;;;;;4985700;28;20199;-66
2022/09/28 09:55:02;;;;;;;12.98;2.38;;;26.90;99.90;;;;;;5005692;28;20539;-66
2022/09/28 09:57:40;;;;;;;13.57;2.28;;;26.80;99.90;;;;;;5010100;28;20250;-66
2022/09/28 10:00:14;;;;;;;16.67;2.35;;;26.80;99.90;;;;;;5020445;28;20281;-66
2022/09/28 10:02:43;;;;;;;13.77;2.33;;;26.80;99.90;;;;;;5017731;28;20192;-66
2022/09/28 10:05:10;;;;;;;12.23;2.50;;;26.90;99.90;;;;;;5013889;28;20204;-69
2022/09/28 10:08:03;;;;;;;11.00;2.58;;;27.20;99.90;;;;;;4992233;28;20837;-66
2022/09/28 10:10:37;;;;;;;17.20;2.25;;;27.30;99.90;;;;;;5021987;28;20227;-67
2022/09/28 10:13:07;;;;;;;14.57;2.20;;;27.60;99.90;;;;;;5019158;28;20195;-67
2022/09/28 10:15:35;;;;;;;17.77;2.05;;;27.60;99.90;;;;;;5007566;28;20189;-67
2022/09/28 10:18:14;;;;;;;12.32;2.20;;;27.70;99.90;;;;;;5018824;28;20185;-67
2022/09/28 10:20:46;;;;;;;10.57;1.95;;;27.60;99.90;;;;;;4996896;28;20184;-67
2022/09/28 10:23:35;;;;;;;12.57;2.40;;;28.10;99.90;;;;;;5015206;28;20229;-67
2022/09/28 10:26:33;;;;;;;6.65;2.15;;;30.00;99.90;;;;;;5001727;28;20224;-67
2022/09/28 10:29:03;;;;;;;15.18;2.25;;;29.70;99.90;;;;;;4997367;28;20255;-67
2022/09/28 10:31:41;;;;;;;9.07;2.00;;;29.00;99.90;;;;;;5019945;28;20181;-67
2022/09/28 10:34:13;;;;;;;10.18;2.08;;;28.50;99.90;;;;;;5016194;28;20210;-67
2022/09/28 10:37:03;;;;;;;11.02;1.98;;;28.40;99.90;;;;;;5020120;28;20181;-67
2022/09/28 10:39:52;;;;;;;15.10;2.40;;;28.30;99.90;;;;;;5009396;28;20224;-67
2022/09/28 10:42:28;;;;;;;12.23;2.30;;;28.20;99.90;;;;;;4980829;28;20185;-67
2022/09/28 10:45:05;;;;;;;16.05;2.58;;;28.50;99.90;;;;;;5009638;28;20207;-67
2022/09/28 10:47:34;;;;;;;7.38;1.95;;;30.10;99.90;;;;;;4997476;28;20209;-67
2022/09/28 10:50:01;;;;;;;14.98;2.28;;;28.80;99.90;;;;;;4999945;28;20188;-67
2022/09/28 10:52:43;;;;;;;11.07;1.90;;;28.10;99.90;;;;;;5014247;28;20839;-67
2022/09/28 10:55:32;;;;;;;11.02;2.13;;;27.60;99.90;;;;;;4985868;28;20821;-67
2022/09/28 10:58:27;;;;;;;8.82;1.90;;;27.50;99.90;;;;;;4992335;28;20185;-67
2022/09/28 11:01:08;;;;;;;14.52;2.38;;;27.50;99.90;;;;;;5015993;28;20223;-68
2022/09/28 11:04:00;;;;;;;12.25;1.95;;;27.30;99.90;;;;;;4990713;28;20200;-67
2022/09/28 11:06:29;;;;;;;7.55;2.00;;;27.20;99.90;;;;;;4989665;28;20211;-67
2022/09/28 11:09:04;;;;;;;10.45;2.10;;;27.20;99.90;;;;;;5011115;28;20714;-67
2022/09/28 11:11:40;;;;;;;11.35;2.08;;;27.20;99.90;;;;;;5010842;28;20211;-67
2022/09/28 11:14:42;;;;;;;10.60;2.08;;;27.20;99.90;;;;;;4984892;28;20193;-67
2022/09/28 11:17:30;;;;;;;9.73;2.20;;;27.30;99.90;;;;;;5016610;28;20728;-67
2022/09/28 11:20:20;;;;;;;10.90;1.88;;;27.30;99.90;;;;;;5002865;28;20323;-67
2022/09/28 11:22:47;;;;;;;10.85;1.92;;;27.20;99.90;;;;;;5024816;28;20662;-67
2022/09/28 11:25:16;;;;;;;8.35;1.63;;;27.00;99.90;;;;;;5000844;28;20289;-67
2022/09/28 11:27:58;;;;;;;9.13;2.03;;;26.90;99.90;;;;;;5010108;28;20292;-67
2022/09/28 11:30:52;;;;;;;10.63;1.80;;;26.90;99.90;;;;;;4975793;28;20177;-67
2022/09/28 11:33:44;;;;;;;12.65;2.17;;;26.80;99.90;;;;;;5008677;28;20185;-66
2022/09/28 11:36:13;;;;;;;9.95;1.90;;;26.90;99.90;;;;;;5003731;28;20275;-66
2022/09/28 11:38:58;;;;;;;10.25;1.98;;;26.80;99.90;;;;;;4990141;28;20201;-67
2022/09/28 11:41:49;;;;;;;7.43;2.00;;;26.80;99.90;;;;;;5006397;28;20224;-67
2022/09/28 11:44:38;;;;;;;9.45;1.90;;;26.90;99.90;;;;;;5012201;28;20721;-66
2022/09/28 11:47:33;;;;;;;9.38;2.13;;;26.90;99.90;;;;;;5003804;28;20600;-66
2022/09/28 11:50:28;;;;;;;9.60;1.67;;;26.90;99.90;;;;;;5002969;28;20813;-66
2022/09/28 11:53:21;;;;;;;10.75;2.08;;;26.80;99.90;;;;;;5005680;28;20193;-67
2022/09/28 11:56:33;;;;;;;12.35;1.95;;;26.70;99.90;;;;;;4981846;28;20609;-66
2022/09/28 11:59:23;;;;;;;10.80;2.00;;;26.70;99.90;;;;;;4990837;28;20555;-67
2022/09/28 12:02:16;;;;;;;12.57;1.85;;;26.70;99.90;;;;;;5000425;28;20228;-67
2022/09/28 12:05:26;;;;;;;11.98;2.03;;;26.70;99.90;;;;;;4983720;28;20196;-66
2022/09/28 12:08:21;;;;;;;10.57;1.70;;;26.60;99.90;;;;;;4998641;28;20217;-67
2022/09/28 12:11:09;;;;;;;9.55;1.88;;;26.50;99.90;;;;;;5004649;28;20216;-67
2022/09/28 12:13:43;;;;;;;6.47;1.63;;;26.60;99.90;;;;;;5005250;28;20181;-67
2022/09/28 12:16:27;;;;;;;9.90;1.52;;;26.60;99.90;;;;;;4986788;28;20299;-66
2022/09/28 12:19:34;;;;;;;8.00;1.65;;;26.60;99.90;;;;;;4997793;28;20287;-67
2022/09/28 12:22:59;;;;;;;6.72;1.85;;;26.50;99.90;;;;;;4968372;28;20642;-67
2022/09/28 12:25:35;;;;;;;6.35;1.77;;;26.50;99.90;;;;;;4992915;28;20215;-66
2022/09/28 12:28:42;;;;;;;11.18;2.05;;;26.40;99.90;;;;;;5002227;28;20191;-67
2022/09/28 12:31:48;;;;;;;13.63;1.80;;;26.50;99.90;;;;;;4996978;28;20174;-67
2022/09/28 12:34:15;;;;;;;9.38;1.92;;;26.50;99.90;;;;;;5016578;28;20192;-67
2022/09/28 12:37:25;;;;;;;11.88;2.33;;;26.50;99.90;;;;;;5020215;28;20271;-66
2022/09/28 12:40:42;;;;;;;8.43;1.80;;;26.50;99.90;;;;;;5010378;28;20287;-67
2022/09/28 12:43:08;;;;;;;13.38;1.95;;;26.50;99.90;;;;;;4995926;28;20220;-67
2022/09/28 12:46:05;;;;;;;10.05;1.92;;;26.50;99.90;;;;;;5001408;28;20201;-66
2022/09/28 12:48:57;;;;;;;11.48;1.80;;;26.40;99.90;;;;;;5009280;28;20188;-66
2022/09/28 12:51:52;;;;;;;16.52;1.95;;;26.30;99.90;;;;;;4988827;28;20847;-66
2022/09/28 12:54:33;;;;;;;5.78;1.50;;;26.30;99.90;;;;;;4997760;28;20185;-66
2022/09/28 12:57:35;;;;;;;11.85;1.88;;;26.30;99.90;;;;;;4990515;28;20242;-66
2022/09/28 13:00:24;;;;;;;12.70;1.77;;;26.30;99.90;;;;;;4999347;28;20179;-66
2022/09/28 13:03:30;;;;;;;11.32;1.90;;;26.30;99.90;;;;;;5000824;28;20192;-66
2022/09/28 13:06:36;;;;;;;9.95;1.98;;;26.20;99.90;;;;;;4996949;28;20607;-66
2022/09/28 13:09:26;;;;;;;10.75;1.92;;;26.30;99.90;;;;;;4988858;28;20193;-66
2022/09/28 13:12:14;;;;;;;17.00;1.88;;;26.30;99.90;;;;;;4985553;28;20269;-66
2022/09/28 13:15:28;;;;;;;17.02;2.28;;;26.20;99.90;;;;;;4992578;28;20188;-66
2022/09/28 13:18:20;;;;;;;7.20;1.65;;;26.10;99.90;;;;;;4970105;28;20262;-66
2022/09/28 13:21:27;;;;;;;12.80;1.80;;;26.20;99.90;;;;;;4992858;28;20226;-66
2022/09/28 13:23:58;;;;;;;14.35;2.13;;;26.00;99.90;;;;;;4997215;28;20254;-67
2022/09/28 13:26:34;;;;;;;7.35;1.80;;;26.10;99.90;;;;;;4990625;28;20295;-66
2022/09/28 13:29:13;;;;;;;17.17;2.35;;;26.00;99.90;;;;;;4992832;28;20220;-66
2022/09/28 13:31:56;;;;;;;9.35;1.92;;;26.00;99.90;;;;;;5004637;28;20639;-66
2022/09/28 13:34:31;;;;;;;11.95;2.20;;;26.00;99.90;;;;;;4983784;28;20185;-66
2022/09/28 13:37:20;;;;;;;8.70;1.73;;;26.00;99.90;;;;;;5000351;28;20215;-66
2022/09/28 13:40:04;;;;;;;6.03;1.60;;;26.00;99.90;;;;;;5002906;28;20586;-66